createdAt,value
2023-04-15T00:01:12.172Z,64.10
2023-04-15T00:03:39.886Z,64.20
2023-04-15T00:06:07.899Z,65.80
2023-04-15T00:08:35.110Z,66.50
2023-04-15T00:11:05.990Z,67.00
2023-04-15T00:13:34.340Z,67.00
2023-04-15T00:16:02.486Z,66.70
2023-04-15T00:18:30.172Z,66.50
2023-04-15T00:20:57.358Z,66.30
2023-04-15T00:23:24.773Z,67.00
2023-04-15T00:25:52.258Z,67.70
2023-04-15T00:28:19.621Z,67.30
2023-04-15T00:30:47.490Z,66.90
2023-04-15T00:33:16.715Z,62.80
2023-04-15T00:35:43.927Z,62.50
2023-04-15T00:38:11.683Z,63.20
2023-04-15T00:40:39.055Z,63.00
2023-04-15T00:43:06.221Z,62.60
2023-04-15T00:45:33.637Z,62.40
2023-04-15T00:48:01.066Z,61.50
2023-04-15T00:50:28.293Z,63.20
2023-04-15T00:52:55.487Z,63.70
2023-04-15T00:55:22.730Z,64.50
2023-04-15T00:57:50.850Z,65.10
2023-04-15T01:00:18.389Z,66.00
2023-04-15T01:02:46.412Z,65.60
2023-04-15T01:05:13.873Z,66.20
2023-04-15T01:07:41.033Z,65.40
2023-04-15T01:10:08.960Z,65.60
2023-04-15T01:12:38.016Z,65.50
2023-04-15T01:15:05.995Z,65.70
2023-04-15T01:17:33.579Z,66.80
2023-04-15T01:20:00.847Z,65.90
2023-04-15T01:22:29.011Z,66.50
2023-04-15T01:25:10.152Z,66.20
2023-04-15T01:27:41.194Z,66.80
2023-04-15T01:30:09.793Z,65.60
2023-04-15T01:32:37.371Z,65.30
2023-04-15T01:35:05.116Z,67.00
2023-04-15T01:37:33.324Z,66.20
2023-04-15T01:40:00.534Z,66.80
2023-04-15T01:42:27.957Z,66.70
2023-04-15T01:44:55.260Z,66.70
2023-04-15T01:47:22.705Z,65.90
2023-04-15T01:49:49.943Z,66.10
2023-04-15T01:52:17.116Z,65.40
2023-04-15T01:54:44.359Z,66.10
2023-04-15T01:57:11.606Z,65.50
2023-04-15T01:59:38.827Z,66.80
2023-04-15T02:02:06.035Z,65.30
2023-04-15T02:04:34.453Z,65.40
2023-04-15T02:07:01.850Z,66.00
2023-04-15T02:09:29.405Z,66.60
2023-04-15T02:11:57.690Z,66.10
2023-04-15T02:14:24.854Z,65.20
2023-04-15T02:16:52.122Z,65.40
2023-04-15T02:19:19.385Z,65.40
2023-04-15T02:21:46.594Z,65.30
2023-04-15T02:24:13.818Z,64.40
2023-04-15T02:26:41.030Z,64.80
2023-04-15T02:29:08.127Z,64.60
2023-04-15T02:31:38.270Z,64.60
2023-04-15T02:34:05.773Z,64.30
2023-04-15T02:36:33.236Z,64.40
2023-04-15T02:39:00.964Z,64.20
2023-04-15T02:41:30.287Z,63.70
2023-04-15T02:43:57.509Z,63.80
2023-04-15T02:46:24.908Z,65.50
2023-04-15T02:48:53.578Z,66.90
2023-04-15T02:51:22.957Z,67.20
2023-04-15T02:53:50.794Z,68.10
2023-04-15T02:56:19.645Z,67.40
2023-04-15T02:58:46.881Z,67.50
2023-04-15T03:01:14.261Z,65.20
2023-04-15T03:03:41.641Z,65.90
2023-04-15T03:06:09.258Z,65.30
2023-04-15T03:08:36.635Z,65.70
2023-04-15T03:11:04.736Z,66.30
2023-04-15T03:13:32.012Z,64.90
2023-04-15T03:15:59.285Z,64.50
2023-04-15T03:18:26.631Z,65.40
2023-04-15T03:20:53.766Z,65.70
2023-04-15T03:23:21.117Z,66.10
2023-04-15T03:25:48.227Z,65.40
2023-04-15T03:28:15.395Z,65.90
2023-04-15T03:30:42.721Z,66.10
2023-04-15T03:33:09.910Z,67.10
2023-04-15T03:35:37.057Z,66.90
2023-04-15T03:38:04.283Z,66.80
2023-04-15T03:40:31.477Z,67.10
2023-04-15T03:42:58.715Z,66.10
2023-04-15T03:45:26.384Z,67.20
2023-04-15T03:47:53.542Z,67.00
2023-04-15T03:50:20.902Z,65.90
2023-04-15T03:52:49.570Z,63.80
2023-04-15T03:55:17.942Z,63.00
2023-04-15T03:57:45.043Z,63.00
2023-04-15T04:00:12.436Z,63.70
2023-04-15T04:02:39.750Z,63.50
2023-04-15T04:05:07.205Z,63.50
2023-04-15T04:07:34.445Z,63.50
2023-04-15T04:10:01.959Z,63.70
2023-04-15T04:12:29.273Z,63.30
2023-04-15T04:14:56.616Z,63.70
2023-04-15T04:17:23.788Z,63.50
2023-04-15T04:19:51.118Z,63.30
2023-04-15T04:22:18.365Z,63.50
2023-04-15T04:24:45.522Z,64.40
2023-04-15T04:27:12.768Z,63.20
2023-04-15T04:29:40.047Z,63.70
2023-04-15T04:32:07.589Z,64.30
2023-04-15T04:34:34.926Z,63.40
2023-04-15T04:37:02.149Z,62.40
2023-04-15T04:39:29.281Z,62.90
2023-04-15T04:41:56.432Z,63.50
2023-04-15T04:44:23.659Z,62.90
2023-04-15T04:46:50.884Z,64.40
2023-04-15T04:49:17.965Z,64.00
2023-04-15T04:51:45.578Z,63.30
2023-04-15T04:54:13.139Z,64.10
2023-04-15T04:56:40.642Z,64.00
2023-04-15T04:59:08.073Z,63.50
2023-04-15T05:01:35.360Z,64.60
2023-04-15T05:04:02.822Z,64.40
2023-04-15T05:06:31.509Z,65.40
2023-04-15T05:08:58.719Z,64.00
2023-04-15T05:11:26.323Z,64.10
2023-04-15T05:13:53.555Z,64.10
2023-04-15T05:16:20.955Z,64.10
2023-04-15T05:18:48.224Z,65.20
2023-04-15T05:21:15.776Z,63.50
2023-04-15T05:23:43.016Z,63.80
2023-04-15T05:26:10.255Z,63.50
2023-04-15T05:28:37.531Z,65.40
2023-04-15T05:31:04.857Z,65.60
2023-04-15T05:33:32.037Z,65.60
2023-04-15T05:35:59.259Z,62.60
2023-04-15T05:38:26.415Z,63.70
2023-04-15T05:40:53.588Z,62.40
2023-04-15T05:43:21.081Z,62.50
2023-04-15T05:45:48.419Z,61.20
2023-04-15T05:48:15.701Z,62.20
2023-04-15T05:50:43.391Z,61.30
2023-04-15T05:53:10.893Z,63.50
2023-04-15T05:55:38.060Z,62.30
2023-04-15T05:58:05.319Z,63.50
2023-04-15T06:00:32.480Z,62.20
2023-04-15T06:03:00.389Z,60.10
2023-04-15T06:05:28.045Z,60.40
2023-04-15T06:07:55.419Z,60.30
2023-04-15T06:10:22.700Z,61.10
2023-04-15T06:12:49.845Z,60.60
2023-04-15T06:15:17.337Z,60.50
2023-04-15T06:17:44.976Z,61.10
2023-04-15T06:20:12.804Z,59.90
2023-04-15T06:22:40.067Z,61.40
2023-04-15T06:25:09.537Z,60.30
2023-04-15T06:27:36.676Z,58.40
2023-04-15T06:30:04.586Z,60.40
2023-04-15T06:32:33.357Z,58.80
2023-04-15T06:35:00.739Z,59.10
2023-04-15T06:37:27.898Z,59.00
2023-04-15T06:39:55.136Z,58.80
2023-04-15T06:42:23.114Z,59.20
2023-04-15T06:44:50.569Z,59.30
2023-04-15T06:47:17.983Z,58.60
2023-04-15T06:49:45.189Z,59.20
2023-04-15T06:52:13.010Z,57.80
2023-04-15T06:54:40.298Z,57.60
2023-04-15T06:57:08.034Z,60.20
2023-04-15T06:59:35.651Z,59.50
2023-04-15T07:02:03.050Z,57.00
2023-04-15T07:04:30.271Z,59.20
2023-04-15T07:06:57.638Z,58.70
2023-04-15T07:09:27.042Z,59.80
2023-04-15T07:11:54.294Z,58.20
2023-04-15T07:14:21.728Z,58.10
2023-04-15T07:16:49.099Z,58.80
2023-04-15T07:19:16.394Z,60.10
2023-04-15T07:21:43.606Z,59.60
2023-04-15T07:24:10.899Z,56.80
2023-04-15T07:26:38.127Z,56.40
2023-04-15T07:29:05.247Z,56.40
2023-04-15T07:31:32.577Z,57.10
2023-04-15T07:34:00.048Z,57.60
2023-04-15T07:36:27.163Z,57.80
2023-04-15T07:38:55.526Z,58.00
2023-04-15T07:41:22.652Z,60.80
2023-04-15T07:43:50.339Z,57.50
2023-04-15T07:46:17.709Z,59.20
2023-04-15T07:48:44.912Z,59.80
2023-04-15T07:51:13.171Z,59.80
2023-04-15T07:53:40.553Z,57.70
2023-04-15T07:56:07.948Z,58.40
2023-04-15T07:58:35.115Z,57.30
2023-04-15T08:01:02.430Z,59.10
2023-04-15T08:03:29.789Z,58.00
2023-04-15T08:05:57.621Z,58.10
2023-04-15T08:08:25.259Z,57.40
2023-04-15T08:10:52.898Z,58.50
2023-04-15T08:13:21.012Z,57.90
2023-04-15T08:16:14.801Z,57.30
2023-04-15T08:18:42.092Z,59.40
2023-04-15T08:21:09.687Z,57.40
2023-04-15T08:23:37.171Z,59.80
2023-04-15T08:26:04.434Z,58.60
2023-04-15T08:28:31.870Z,58.20
2023-04-15T08:30:59.077Z,58.90
2023-04-15T08:33:26.339Z,56.80
2023-04-15T08:35:53.455Z,58.80
2023-04-15T08:38:20.707Z,58.60
2023-04-15T08:40:47.904Z,59.90
2023-04-15T08:43:28.182Z,55.70
2023-04-15T08:45:56.039Z,57.00
2023-04-15T08:48:24.754Z,57.80
2023-04-15T08:50:52.456Z,56.10
2023-04-15T08:53:19.708Z,55.80
2023-04-15T08:55:50.843Z,54.80
2023-04-15T08:58:19.977Z,54.40
2023-04-15T09:00:48.961Z,55.50
2023-04-15T09:03:17.859Z,53.60
2023-04-15T09:05:45.996Z,56.00
2023-04-15T09:08:13.349Z,53.70
2023-04-15T09:10:40.661Z,53.70
2023-04-15T09:13:08.896Z,54.80
2023-04-15T09:15:39.188Z,52.70
2023-04-15T09:18:07.175Z,53.20
2023-04-15T09:20:44.488Z,53.80
2023-04-15T09:23:15.788Z,55.00
2023-04-15T09:25:42.987Z,53.30
2023-04-15T09:28:11.137Z,53.30
2023-04-15T09:30:38.437Z,52.80
2023-04-15T09:33:08.770Z,55.50
2023-04-15T09:35:36.996Z,52.00
2023-04-15T09:38:06.578Z,51.80
2023-04-15T09:40:38.096Z,52.40
2023-04-15T09:43:06.501Z,52.20
2023-04-15T09:45:34.848Z,52.60
2023-04-15T09:48:19.095Z,55.20
2023-04-15T09:50:47.016Z,55.00
2023-04-15T09:53:21.886Z,54.10
2023-04-15T09:55:54.704Z,52.60
2023-04-15T09:58:27.006Z,53.10
2023-04-15T10:00:56.819Z,52.60
2023-04-15T10:03:26.775Z,53.60
2023-04-15T10:05:59.041Z,52.60
2023-04-15T10:08:33.143Z,52.30
2023-04-15T10:11:04.875Z,51.20
2023-04-15T10:13:37.597Z,52.10
2023-04-15T10:16:04.745Z,50.30
2023-04-15T10:18:35.922Z,52.00
2023-04-15T10:21:03.128Z,52.20
2023-04-15T10:23:30.750Z,50.60
2023-04-15T10:25:59.035Z,50.30
2023-04-15T10:28:26.904Z,51.50
2023-04-15T10:30:54.564Z,49.20
2023-04-15T10:33:24.118Z,50.10
2023-04-15T10:35:52.921Z,49.50
2023-04-15T10:38:53.078Z,49.50
2023-04-15T10:41:26.169Z,50.20
2023-04-15T10:43:56.316Z,49.40
2023-04-15T10:46:35.673Z,49.50
2023-04-15T10:49:09.501Z,47.80
2023-04-15T10:51:42.049Z,47.60
2023-04-15T10:54:28.267Z,48.90
2023-04-15T10:57:04.240Z,48.00
2023-04-15T10:59:32.298Z,48.80
2023-04-15T11:02:05.104Z,47.50
2023-04-15T11:04:54.234Z,48.90
2023-04-15T11:07:48.753Z,49.60
2023-04-15T11:10:18.771Z,50.60
2023-04-15T11:12:46.779Z,49.10
2023-04-15T11:15:40.867Z,48.70
2023-04-15T11:18:15.332Z,50.00
2023-04-15T11:20:48.291Z,50.30
2023-04-15T11:23:17.147Z,50.50
2023-04-15T11:25:44.732Z,49.30
2023-04-15T11:28:13.024Z,49.30
2023-04-15T11:30:42.449Z,51.00
2023-04-15T11:33:14.156Z,48.20
2023-04-15T11:35:42.807Z,49.50
2023-04-15T11:38:12.225Z,47.80
2023-04-15T11:40:40.220Z,48.60
2023-04-15T11:43:14.541Z,47.30
2023-04-15T11:46:02.148Z,48.40
2023-04-15T11:48:34.575Z,50.10
2023-04-15T11:51:06.425Z,48.10
2023-04-15T11:53:42.303Z,47.40
2023-04-15T11:56:11.450Z,46.90
2023-04-15T11:58:39.574Z,46.30
2023-04-15T12:01:07.551Z,46.80
2023-04-15T12:03:39.289Z,45.80
2023-04-15T12:06:22.680Z,45.20
2023-04-15T12:08:56.019Z,45.10
2023-04-15T12:11:51.588Z,47.00
2023-04-15T12:14:32.873Z,45.30
2023-04-15T12:17:07.128Z,47.00
2023-04-15T12:19:39.381Z,45.00
2023-04-15T12:22:09.196Z,45.40
2023-04-15T12:24:38.057Z,47.80
2023-04-15T12:27:10.068Z,47.20
2023-04-15T12:29:39.233Z,45.80
2023-04-15T12:32:09.614Z,44.00
2023-04-15T12:34:54.661Z,45.30
2023-04-15T12:37:22.079Z,45.40
2023-04-15T12:39:50.265Z,44.60
2023-04-15T12:42:18.313Z,43.40
2023-04-15T12:44:45.893Z,42.30
2023-04-15T12:47:14.008Z,41.90
2023-04-15T12:49:41.452Z,40.10
2023-04-15T12:52:08.856Z,42.30
2023-04-15T12:54:36.624Z,42.80
2023-04-15T12:57:06.955Z,40.30
2023-04-15T12:59:35.796Z,41.80
2023-04-15T13:02:03.374Z,43.40
2023-04-15T13:04:31.527Z,39.90
2023-04-15T13:06:59.046Z,41.70
2023-04-15T13:09:26.599Z,41.50
2023-04-15T13:11:54.725Z,44.20
2023-04-15T13:14:22.214Z,42.80
2023-04-15T13:16:49.396Z,41.80
2023-04-15T13:19:16.598Z,41.90
2023-04-15T13:21:43.834Z,43.90
2023-04-15T13:24:10.987Z,43.10
2023-04-15T13:26:38.227Z,44.20
2023-04-15T13:29:05.690Z,43.60
2023-04-15T13:31:32.980Z,44.10
2023-04-15T13:34:00.220Z,44.00
2023-04-15T13:36:27.582Z,44.50
2023-04-15T13:38:54.941Z,43.00
2023-04-15T13:41:22.178Z,44.00
2023-04-15T13:43:49.429Z,42.60
2023-04-15T13:46:16.907Z,42.70
2023-04-15T13:48:44.241Z,40.40
2023-04-15T13:51:11.388Z,41.40
2023-04-15T13:53:39.774Z,41.10
2023-04-15T13:56:10.487Z,38.80
2023-04-15T13:58:38.446Z,38.90
2023-04-15T14:01:07.301Z,40.20
2023-04-15T14:03:38.465Z,38.10
2023-04-15T14:06:06.783Z,41.00
2023-04-15T14:08:34.213Z,40.80
2023-04-15T14:11:01.643Z,41.10
2023-04-15T14:13:29.051Z,40.60
2023-04-15T14:15:57.519Z,40.90
2023-04-15T14:18:24.744Z,41.90
2023-04-15T14:20:52.119Z,42.40
2023-04-15T14:23:19.474Z,43.10
2023-04-15T14:25:48.397Z,43.30
2023-04-15T14:28:16.626Z,44.30
2023-04-15T14:30:44.072Z,44.10
2023-04-15T14:33:11.374Z,40.10
2023-04-15T14:35:39.347Z,43.50
2023-04-15T14:38:08.360Z,43.20
2023-04-15T14:40:35.590Z,43.20
2023-04-15T14:43:03.039Z,44.90
2023-04-15T14:45:31.087Z,44.40
2023-04-15T14:47:59.102Z,44.60
2023-04-15T14:50:26.352Z,45.00
2023-04-15T14:52:53.502Z,45.30
2023-04-15T14:55:20.849Z,43.30
2023-04-15T14:57:48.341Z,43.40
2023-04-15T15:00:16.345Z,44.80
2023-04-15T15:02:44.084Z,44.80
2023-04-15T15:05:12.375Z,45.40
2023-04-15T15:07:41.257Z,44.00
2023-04-15T15:10:09.043Z,44.00
2023-04-15T15:12:36.574Z,44.50
2023-04-15T15:15:12.467Z,44.10
2023-04-15T15:17:47.946Z,45.40
2023-04-15T15:20:16.941Z,44.20
2023-04-15T15:22:44.166Z,42.30
2023-04-15T15:25:11.449Z,43.60
2023-04-15T15:27:38.753Z,42.60
2023-04-15T15:30:07.122Z,44.10
2023-04-15T15:32:34.466Z,43.90
2023-04-15T15:35:01.877Z,43.80
2023-04-15T15:37:31.064Z,44.80
2023-04-15T15:39:58.291Z,42.70
2023-04-15T15:42:25.772Z,44.60
2023-04-15T15:44:55.623Z,42.50
2023-04-15T15:47:22.996Z,44.50
2023-04-15T15:49:50.469Z,45.30
2023-04-15T15:52:17.671Z,44.90
2023-04-15T15:54:44.983Z,44.70
2023-04-15T15:57:12.261Z,44.40
2023-04-15T15:59:43.890Z,44.30
2023-04-15T16:02:12.370Z,44.60
2023-04-15T16:04:40.322Z,44.70
2023-04-15T16:07:07.614Z,44.40
2023-04-15T16:09:35.043Z,46.20
2023-04-15T16:12:04.212Z,46.20
2023-04-15T16:14:31.470Z,46.10
2023-04-15T16:16:58.767Z,47.20
2023-04-15T16:19:25.981Z,44.80
2023-04-15T16:21:53.721Z,45.80
2023-04-15T16:24:21.101Z,47.10
2023-04-15T16:26:48.282Z,46.60
2023-04-15T16:29:15.813Z,45.70
2023-04-15T16:31:43.330Z,46.30
2023-04-15T16:34:10.715Z,47.40
2023-04-15T16:36:40.685Z,47.40
2023-04-15T16:39:08.101Z,46.90
2023-04-15T16:41:35.480Z,48.00
2023-04-15T16:44:03.577Z,49.50
2023-04-15T16:46:31.406Z,50.20
2023-04-15T16:48:58.771Z,50.40
2023-04-15T16:51:26.759Z,49.80
2023-04-15T16:53:53.985Z,50.50
2023-04-15T16:56:22.279Z,49.60
2023-04-15T16:58:49.879Z,50.30
2023-04-15T17:01:17.552Z,50.00
2023-04-15T17:03:46.179Z,50.20
2023-04-15T17:06:14.684Z,48.50
2023-04-15T17:08:45.044Z,47.10
2023-04-15T17:11:12.608Z,48.40
2023-04-15T17:13:39.892Z,47.00
2023-04-15T17:16:07.466Z,46.70
2023-04-15T17:18:34.648Z,47.90
2023-04-15T17:21:01.900Z,49.40
2023-04-15T17:23:29.230Z,49.80
2023-04-15T17:25:56.488Z,49.00
2023-04-15T17:28:23.766Z,50.20
2023-04-15T17:30:51.258Z,49.20
2023-04-15T17:34:00.106Z,48.70
2023-04-15T17:36:06.166Z,48.30
2023-04-15T17:38:33.301Z,48.90
2023-04-15T17:41:01.115Z,48.90
2023-04-15T17:43:28.425Z,47.10
2023-04-15T17:45:56.558Z,47.40
2023-04-15T17:48:26.523Z,47.60
2023-04-15T17:50:53.785Z,47.10
2023-04-15T17:53:21.080Z,48.80
2023-04-15T17:55:48.251Z,49.30
2023-04-15T17:58:15.491Z,48.90
2023-04-15T18:00:43.113Z,48.70
2023-04-15T18:03:10.618Z,46.40
2023-04-15T18:05:39.502Z,49.00
2023-04-15T18:08:08.172Z,47.40
2023-04-15T18:10:35.905Z,47.70
2023-04-15T18:13:03.730Z,48.70
2023-04-15T18:15:31.598Z,48.00
2023-04-15T18:17:59.668Z,47.50
2023-04-15T18:20:27.255Z,49.30
2023-04-15T18:22:54.413Z,48.30
2023-04-15T18:25:21.701Z,48.20
2023-04-15T18:27:49.083Z,47.40
2023-04-15T18:30:16.336Z,48.10
2023-04-15T18:32:44.267Z,48.70
2023-04-15T18:35:11.635Z,47.60
2023-04-15T18:37:38.856Z,49.80
2023-04-15T18:40:07.640Z,48.90
2023-04-15T18:42:35.063Z,50.40
2023-04-15T18:45:02.330Z,50.10
2023-04-15T18:47:29.961Z,49.50
2023-04-15T18:49:58.718Z,49.50
2023-04-15T18:52:25.984Z,50.40
2023-04-15T18:54:53.180Z,51.30
2023-04-15T18:57:25.867Z,50.80
2023-04-15T18:59:58.874Z,51.10
2023-04-15T19:02:26.308Z,51.00
2023-04-15T19:04:53.523Z,52.70
2023-04-15T19:07:20.904Z,52.30
2023-04-15T19:09:48.280Z,53.50
2023-04-15T19:12:15.570Z,53.50
2023-04-15T19:14:42.757Z,52.80
2023-04-15T19:17:10.066Z,55.10
2023-04-15T19:19:37.736Z,54.90
2023-04-15T19:22:05.119Z,55.50
2023-04-15T19:24:33.247Z,55.90
2023-04-15T19:27:01.738Z,55.70
2023-04-15T19:29:29.070Z,56.10
2023-04-15T19:31:56.339Z,57.60
2023-04-15T19:34:25.228Z,55.80
2023-04-15T19:36:52.440Z,56.40
2023-04-15T19:39:20.046Z,56.40
2023-04-15T19:41:47.395Z,57.40
2023-04-15T19:44:15.323Z,57.00
2023-04-15T19:46:45.013Z,56.90
2023-04-15T19:49:12.460Z,57.40
2023-04-15T19:51:39.648Z,57.80
2023-04-15T19:54:06.832Z,58.30
2023-04-15T19:56:34.561Z,56.80
2023-04-15T19:59:02.305Z,57.90
2023-04-15T20:01:29.804Z,57.00
2023-04-15T20:03:57.344Z,56.70
2023-04-15T20:06:24.646Z,56.70
2023-04-15T20:08:52.242Z,57.80
2023-04-15T20:11:19.986Z,57.70
2023-04-15T20:13:47.237Z,57.40
2023-04-15T20:16:14.496Z,55.80
2023-04-15T20:18:41.701Z,57.30
2023-04-15T20:21:08.826Z,58.90
2023-04-15T20:23:36.254Z,59.70
2023-04-15T20:26:03.405Z,59.70
2023-04-15T20:28:30.750Z,60.40
2023-04-15T20:30:58.238Z,59.50
2023-04-15T20:33:27.413Z,60.00
2023-04-15T20:35:55.375Z,60.70
2023-04-15T20:38:22.602Z,60.10
2023-04-15T20:40:49.836Z,59.10
2023-04-15T20:43:17.072Z,60.20
2023-04-15T20:45:44.408Z,60.60
2023-04-15T20:48:11.742Z,60.60
2023-04-15T20:50:39.235Z,60.60
2023-04-15T20:53:06.440Z,60.30
2023-04-15T20:55:33.893Z,60.00
2023-04-15T20:58:01.229Z,59.90
2023-04-15T21:00:28.540Z,60.00
2023-04-15T21:02:55.956Z,60.70
2023-04-15T21:05:23.296Z,61.00
2023-04-15T21:07:50.573Z,61.80
2023-04-15T21:10:17.860Z,61.90
2023-04-15T21:12:45.105Z,62.30
2023-04-15T21:15:12.978Z,62.00
2023-04-15T21:17:41.784Z,60.70
2023-04-15T21:20:09.519Z,60.40
2023-04-15T21:22:36.760Z,59.90
2023-04-15T21:25:04.247Z,59.50
2023-04-15T21:27:31.462Z,58.70
2023-04-15T21:29:58.658Z,59.70
2023-04-15T21:32:26.229Z,59.10
2023-04-15T21:34:53.388Z,59.10
2023-04-15T21:37:20.689Z,58.90
2023-04-15T21:39:47.797Z,59.70
2023-04-15T21:42:14.998Z,60.20
2023-04-15T21:44:42.249Z,59.90
2023-04-15T21:47:09.600Z,60.60
2023-04-15T21:49:37.101Z,60.70
2023-04-15T21:52:04.907Z,58.60
2023-04-15T21:54:33.498Z,58.70
2023-04-15T21:57:01.932Z,58.30
2023-04-15T21:59:29.155Z,57.40
2023-04-15T22:01:56.485Z,57.50
2023-04-15T22:04:23.992Z,56.00
2023-04-15T22:06:52.503Z,56.00
2023-04-15T22:09:19.745Z,56.90
2023-04-15T22:11:47.474Z,55.90
2023-04-15T22:14:15.249Z,55.80
2023-04-15T22:16:42.567Z,56.40
2023-04-15T22:19:09.968Z,55.70
2023-04-15T22:21:37.396Z,55.70
2023-04-15T22:24:39.260Z,55.80
2023-04-15T22:26:52.128Z,56.60
2023-04-15T22:29:19.298Z,57.40
2023-04-15T22:31:46.674Z,55.70
2023-04-15T22:34:20.854Z,55.10
2023-04-15T22:36:52.583Z,56.20
2023-04-15T22:39:20.284Z,55.30
2023-04-15T22:41:47.831Z,56.20
2023-04-15T22:44:15.639Z,54.60
2023-04-15T22:46:43.712Z,56.50
2023-04-15T22:49:11.318Z,56.10
2023-04-15T22:51:38.609Z,55.70
2023-04-15T22:54:05.963Z,55.10
2023-04-15T22:56:33.258Z,56.00
2023-04-15T22:59:00.667Z,56.30
2023-04-15T23:01:27.888Z,56.60
2023-04-15T23:03:56.845Z,56.00
2023-04-15T23:06:33.160Z,56.40
2023-04-15T23:09:00.700Z,56.90
2023-04-15T23:11:27.906Z,56.10
2023-04-15T23:13:55.100Z,57.10
2023-04-15T23:16:23.116Z,56.20
2023-04-15T23:18:50.270Z,58.00
2023-04-15T23:21:17.486Z,57.20
2023-04-15T23:23:44.883Z,58.60
2023-04-15T23:26:12.135Z,59.00
2023-04-15T23:28:39.268Z,59.20
2023-04-15T23:31:07.293Z,59.80
2023-04-15T23:33:34.593Z,59.90
2023-04-15T23:36:01.834Z,60.50
2023-04-15T23:38:29.203Z,61.00
2023-04-15T23:40:56.431Z,61.20
2023-04-15T23:43:23.569Z,62.30
2023-04-15T23:45:51.236Z,62.70
2023-04-15T23:48:18.427Z,62.80
2023-04-15T23:50:45.602Z,63.60
2023-04-15T23:53:12.744Z,63.40
2023-04-15T23:55:39.897Z,63.80
2023-04-15T23:58:07.035Z,63.70
